createdAt,value
2022-08-02T00:02:28.742Z,25.99
2022-08-02T00:07:31.995Z,25.95
2022-08-02T00:12:35.585Z,25.87
2022-08-02T00:17:40.027Z,25.88
2022-08-02T00:22:42.830Z,25.92
2022-08-02T00:27:45.633Z,25.88
2022-08-02T00:32:50.015Z,25.80
2022-08-02T00:37:52.891Z,25.70
2022-08-02T00:43:04.207Z,25.56
2022-08-02T00:48:10.813Z,25.53
2022-08-02T00:53:14.085Z,25.55
2022-08-02T00:58:16.890Z,25.49
2022-08-02T01:03:21.025Z,25.40
2022-08-02T01:08:29.424Z,25.38
2022-08-02T01:13:34.525Z,25.44
2022-08-02T01:18:45.198Z,25.37
2022-08-02T01:24:01.217Z,25.44
2022-08-02T01:29:09.601Z,25.37
2022-08-02T01:34:21.802Z,25.20
2022-08-02T01:39:32.553Z,25.16
2022-08-02T01:44:39.071Z,25.14
2022-08-02T01:49:44.330Z,25.12
2022-08-02T01:54:50.430Z,25.08
2022-08-02T01:59:57.374Z,25.03
2022-08-02T02:05:02.972Z,24.94
2022-08-02T02:10:09.707Z,24.91
2022-08-02T02:15:14.562Z,24.80
2022-08-02T02:20:20.164Z,24.85
2022-08-02T02:25:29.344Z,24.87
2022-08-02T02:30:48.499Z,24.84
2022-08-02T02:35:53.754Z,24.74
2022-08-02T02:40:59.734Z,24.74
2022-08-02T02:46:05.734Z,24.73
2022-08-02T02:51:14.345Z,24.78
2022-08-02T02:56:18.312Z,24.78
2022-08-02T03:01:55.902Z,24.71
2022-08-02T03:06:53.833Z,24.64
2022-08-02T03:11:57.920Z,24.58
2022-08-02T03:17:02.134Z,24.57
2022-08-02T03:22:05.165Z,24.54
2022-08-02T03:27:08.055Z,24.43
2022-08-02T03:32:12.849Z,24.33
2022-08-02T03:37:16.937Z,24.29
2022-08-02T03:42:20.666Z,24.25
2022-08-02T03:47:25.787Z,24.25
2022-08-02T03:52:29.773Z,24.19
2022-08-02T03:57:32.624Z,24.13
2022-08-02T04:02:37.145Z,24.03
2022-08-02T04:08:33.893Z,23.97
2022-08-02T04:13:02.683Z,23.82
2022-08-02T04:18:07.435Z,23.72
2022-08-02T04:23:12.852Z,23.72
2022-08-02T04:28:18.576Z,23.70
2022-08-02T04:33:23.450Z,23.80
2022-08-02T04:38:26.561Z,23.93
2022-08-02T04:43:29.374Z,23.93
2022-08-02T04:48:33.768Z,23.92
2022-08-02T04:53:36.549Z,23.87
2022-08-02T04:58:40.702Z,23.79
2022-08-02T05:03:46.766Z,23.70
2022-08-02T05:08:52.667Z,23.70
2022-08-02T05:13:57.932Z,23.80
2022-08-02T05:19:03.970Z,23.92
2022-08-02T05:24:07.763Z,23.95
2022-08-02T05:29:10.644Z,23.87
2022-08-02T05:34:14.684Z,23.87
2022-08-02T05:39:18.887Z,23.97
2022-08-02T05:44:22.064Z,23.95
2022-08-02T05:49:26.238Z,24.06
2022-08-02T05:54:39.440Z,24.11
2022-08-02T05:59:57.177Z,24.22
2022-08-02T06:05:06.543Z,24.29
2022-08-02T06:10:13.239Z,24.40
2022-08-02T06:15:17.951Z,24.46
2022-08-02T06:20:22.132Z,24.54
2022-08-02T06:25:50.098Z,24.59
2022-08-02T06:30:48.465Z,24.61
2022-08-02T06:36:00.125Z,24.61
2022-08-02T06:41:07.804Z,24.72
2022-08-02T06:46:54.343Z,24.74
2022-08-02T06:51:36.225Z,24.76
2022-08-02T06:56:38.972Z,24.77
2022-08-02T07:01:43.107Z,24.85
2022-08-02T07:06:47.215Z,24.87
2022-08-02T07:11:50.227Z,24.87
2022-08-02T07:16:53.515Z,24.70
2022-08-02T07:22:00.564Z,24.62
2022-08-02T07:27:12.785Z,24.48
2022-08-02T07:32:16.691Z,24.60
2022-08-02T07:37:51.092Z,24.57
2022-08-02T07:42:44.815Z,24.50
2022-08-02T07:47:47.883Z,24.42
2022-08-02T07:52:57.852Z,24.46
2022-08-02T07:58:00.820Z,24.48
2022-08-02T08:03:03.657Z,24.62
2022-08-02T08:08:11.229Z,24.68
2022-08-02T08:13:18.337Z,24.77
2022-08-02T08:18:22.377Z,24.78
2022-08-02T08:23:26.536Z,24.81
2022-08-02T08:28:29.332Z,24.79
2022-08-02T08:33:32.234Z,24.81
2022-08-02T08:38:36.439Z,24.78
2022-08-02T08:43:39.370Z,24.76
2022-08-02T08:48:47.364Z,24.79
2022-08-02T08:53:55.468Z,24.84
2022-08-02T08:58:58.678Z,24.93
2022-08-02T09:04:01.720Z,24.89
2022-08-02T09:09:05.959Z,24.93
2022-08-02T09:14:08.713Z,24.93
2022-08-02T09:19:20.139Z,24.94
2022-08-02T09:24:25.204Z,24.99
2022-08-02T09:29:41.118Z,25.02
2022-08-02T09:34:57.860Z,25.00
2022-08-02T09:40:03.418Z,25.00
2022-08-02T09:45:07.198Z,25.06
2022-08-02T09:50:15.077Z,25.04
2022-08-02T09:55:19.562Z,25.11
2022-08-02T10:00:37.176Z,25.12
2022-08-02T10:06:01.207Z,25.17
2022-08-02T10:11:07.024Z,25.21
2022-08-02T10:16:10.631Z,25.22
2022-08-02T10:21:16.301Z,25.22
2022-08-02T10:26:21.911Z,25.25
2022-08-02T10:31:29.498Z,25.26
2022-08-02T10:36:34.745Z,25.25
2022-08-02T10:41:47.756Z,25.27
2022-08-02T10:46:50.970Z,25.29
2022-08-02T10:52:11.358Z,25.36
2022-08-02T10:57:22.025Z,25.39
2022-08-02T11:02:37.041Z,25.44
2022-08-02T11:07:42.182Z,25.44
2022-08-02T11:13:03.438Z,25.48
2022-08-02T11:18:06.381Z,25.49
2022-08-02T11:23:44.326Z,25.55
2022-08-02T11:28:51.457Z,25.58
2022-08-02T11:33:55.083Z,25.59
2022-08-02T11:39:10.432Z,25.63
2022-08-02T11:44:14.623Z,25.67
2022-08-02T11:49:19.389Z,25.71
2022-08-02T11:54:31.675Z,25.75
2022-08-02T11:59:38.717Z,25.82
2022-08-02T12:04:42.290Z,25.88
2022-08-02T12:09:46.909Z,25.89
2022-08-02T12:14:52.259Z,25.88
2022-08-02T12:19:55.034Z,25.88
2022-08-02T12:24:59.166Z,25.91
2022-08-02T12:30:07.995Z,25.92
2022-08-02T12:35:13.490Z,25.94
2022-08-02T12:40:25.771Z,25.95
2022-08-02T12:45:40.753Z,25.97
2022-08-02T12:50:45.136Z,25.99
2022-08-02T12:55:59.334Z,26.02
2022-08-02T13:01:06.728Z,26.04
2022-08-02T13:06:32.393Z,26.06
2022-08-02T13:11:32.152Z,26.07
2022-08-02T13:16:36.697Z,26.00
2022-08-02T13:21:41.354Z,26.02
2022-08-02T13:27:04.473Z,26.10
2022-08-02T13:32:12.408Z,26.17
2022-08-02T13:37:15.825Z,26.18
2022-08-02T13:42:18.715Z,26.21
2022-08-02T13:47:35.974Z,26.22
2022-08-02T13:52:39.530Z,26.25
2022-08-02T13:57:42.299Z,26.28
2022-08-02T14:02:46.713Z,26.28
2022-08-02T14:07:49.464Z,26.30
2022-08-02T14:12:56.499Z,26.33
2022-08-02T14:18:00.932Z,26.33
2022-08-02T14:23:03.794Z,26.35
2022-08-02T14:28:07.162Z,26.36
2022-08-02T14:33:11.572Z,26.41
2022-08-02T14:38:14.373Z,26.38
2022-08-02T14:43:37.519Z,26.36
2022-08-02T14:48:41.746Z,26.37
2022-08-02T14:53:49.177Z,26.39
2022-08-02T14:59:06.093Z,26.41
2022-08-02T15:04:10.352Z,26.47
2022-08-02T15:09:13.704Z,26.51
2022-08-02T15:14:20.286Z,26.56
2022-08-02T15:19:56.417Z,26.57
2022-08-02T15:24:53.666Z,26.62
2022-08-02T15:30:00.293Z,26.65
2022-08-02T15:35:05.662Z,26.66
2022-08-02T15:40:09.466Z,26.70
2022-08-02T15:45:14.752Z,26.82
2022-08-02T15:50:20.939Z,26.88
2022-08-02T15:55:23.818Z,26.97
2022-08-02T16:00:27.879Z,27.02
2022-08-02T16:05:32.512Z,27.10
2022-08-02T16:10:35.638Z,27.17
2022-08-02T16:15:38.597Z,27.23
2022-08-02T16:20:42.814Z,27.30
2022-08-02T16:25:45.601Z,27.34
2022-08-02T16:30:59.469Z,27.37
2022-08-02T16:36:14.952Z,27.42
2022-08-02T16:41:22.726Z,27.50
2022-08-02T16:46:25.819Z,27.53
2022-08-02T16:51:31.002Z,27.58
2022-08-02T16:56:33.883Z,27.61
2022-08-02T17:02:03.194Z,27.68
2022-08-02T17:07:00.892Z,27.77
2022-08-02T17:12:03.730Z,27.82
2022-08-02T17:17:06.624Z,27.96
2022-08-02T17:22:18.705Z,27.91
2022-08-02T17:27:21.486Z,27.94
2022-08-02T17:32:24.421Z,27.92
2022-08-02T17:37:34.101Z,28.03
2022-08-02T17:42:44.102Z,28.08
2022-08-02T17:48:04.449Z,28.08
2022-08-02T17:53:09.360Z,28.12
2022-08-02T17:58:12.679Z,28.16
2022-08-02T18:03:15.662Z,28.17
2022-08-02T18:08:23.230Z,28.18
2022-08-02T18:13:28.481Z,28.19
2022-08-02T18:18:36.061Z,28.19
2022-08-02T18:23:44.128Z,28.20
2022-08-02T18:28:51.569Z,28.21
2022-08-02T18:34:02.023Z,28.24
2022-08-02T18:39:08.071Z,28.19
2022-08-02T18:44:29.963Z,28.20
2022-08-02T18:49:46.885Z,28.21
2022-08-02T18:54:52.332Z,28.18
2022-08-02T18:59:55.076Z,28.18
2022-08-02T19:04:57.824Z,28.17
2022-08-02T19:10:01.927Z,28.22
2022-08-02T19:15:04.970Z,28.16
2022-08-02T19:20:09.208Z,28.20
2022-08-02T19:25:15.919Z,28.19
2022-08-02T19:30:20.331Z,28.24
2022-08-02T19:35:29.913Z,28.20
2022-08-02T19:40:36.177Z,28.20
2022-08-02T19:45:50.339Z,28.15
2022-08-02T19:50:56.461Z,28.01
2022-08-02T19:56:04.961Z,28.09
2022-08-02T20:01:09.525Z,28.20
2022-08-02T20:06:19.674Z,28.14
2022-08-02T20:11:34.976Z,28.04
2022-08-02T20:16:38.266Z,27.98
2022-08-02T20:21:50.515Z,27.91
2022-08-02T20:26:59.942Z,27.87
2022-08-02T20:32:03.248Z,27.96
2022-08-02T20:37:59.765Z,27.98
2022-08-02T20:42:30.616Z,28.02
2022-08-02T20:47:39.449Z,27.97
2022-08-02T20:52:42.898Z,27.91
2022-08-02T20:58:00.441Z,27.84
2022-08-02T21:03:05.645Z,27.92
2022-08-02T21:08:14.007Z,27.90
2022-08-02T21:13:22.937Z,27.96
2022-08-02T21:18:36.599Z,28.05
2022-08-02T21:29:09.131Z,28.04
2022-08-02T21:34:26.682Z,27.89
2022-08-02T21:39:30.766Z,27.86
2022-08-02T21:44:34.983Z,27.93
2022-08-02T21:50:09.812Z,28.08
2022-08-02T21:55:00.893Z,28.11
2022-08-02T22:00:10.665Z,28.03
2022-08-02T22:10:51.475Z,27.88
2022-08-02T22:15:57.548Z,27.85
2022-08-02T22:21:02.292Z,27.87
2022-08-02T22:26:19.122Z,27.82
2022-08-02T22:31:41.438Z,27.78
2022-08-02T22:36:45.478Z,27.68
2022-08-02T22:42:06.002Z,27.68
2022-08-02T22:47:14.739Z,27.66
2022-08-02T22:52:20.117Z,27.65
2022-08-02T22:57:31.068Z,27.62
2022-08-02T22:59:10.715Z,27.98
2022-08-02T22:59:11.397Z,28.05
2022-08-02T23:02:35.443Z,27.53
2022-08-02T23:07:41.120Z,27.34
2022-08-02T23:12:43.935Z,27.28
2022-08-02T23:18:05.790Z,27.01
2022-08-02T23:23:10.850Z,27.09
2022-08-02T23:28:14.632Z,27.10
2022-08-02T23:33:18.759Z,27.14
2022-08-02T23:38:21.507Z,27.12
2022-08-02T23:43:24.215Z,27.11
2022-08-02T23:48:28.485Z,27.10
2022-08-02T23:53:31.327Z,27.06
2022-08-02T23:58:34.137Z,27.00
